sensor_id;sensor_type;location;lat;lon;timestamp;P1;durP1;ratioP1;P2;durP2;ratioP2
21505;SDS011;10914;48.886;9.394;2023-05-19T00:01:58;29.00;;;27.40;;
21505;SDS011;10914;48.886;9.394;2023-05-19T00:04:29;29.85;;;28.00;;
21505;SDS011;10914;48.886;9.394;2023-05-19T00:06:55;28.38;;;26.63;;
21505;SDS011;10914;48.886;9.394;2023-05-19T00:09:23;29.45;;;27.52;;
21505;SDS011;10914;48.886;9.394;2023-05-19T00:11:48;29.65;;;27.55;;
21505;SDS011;10914;48.886;9.394;2023-05-19T00:14:13;29.52;;;27.80;;
21505;SDS011;10914;48.886;9.394;2023-05-19T00:16:39;26.80;;;25.30;;
21505;SDS011;10914;48.886;9.394;2023-05-19T00:19:04;26.80;;;25.00;;
21505;SDS011;10914;48.886;9.394;2023-05-19T00:21:30;27.23;;;25.27;;
21505;SDS011;10914;48.886;9.394;2023-05-19T00:23:56;26.92;;;25.15;;
21505;SDS011;10914;48.886;9.394;2023-05-19T00:26:21;26.63;;;24.92;;
21505;SDS011;10914;48.886;9.394;2023-05-19T00:28:47;26.40;;;24.77;;
21505;SDS011;10914;48.886;9.394;2023-05-19T00:31:12;28.75;;;26.85;;
21505;SDS011;10914;48.886;9.394;2023-05-19T00:33:38;29.17;;;27.27;;
21505;SDS011;10914;48.886;9.394;2023-05-19T00:36:03;26.90;;;25.17;;
21505;SDS011;10914;48.886;9.394;2023-05-19T00:38:32;26.38;;;24.52;;
21505;SDS011;10914;48.886;9.394;2023-05-19T00:40:58;25.63;;;24.08;;
21505;SDS011;10914;48.886;9.394;2023-05-19T00:43:23;26.13;;;24.65;;
21505;SDS011;10914;48.886;9.394;2023-05-19T00:45:49;26.63;;;25.02;;
21505;SDS011;10914;48.886;9.394;2023-05-19T00:48:14;27.23;;;25.73;;
21505;SDS011;10914;48.886;9.394;2023-05-19T00:50:39;26.90;;;24.98;;
21505;SDS011;10914;48.886;9.394;2023-05-19T00:53:05;26.48;;;24.88;;
21505;SDS011;10914;48.886;9.394;2023-05-19T00:55:30;26.27;;;24.77;;
21505;SDS011;10914;48.886;9.394;2023-05-19T00:57:57;27.08;;;25.48;;
21505;SDS011;10914;48.886;9.394;2023-05-19T01:00:22;27.42;;;25.75;;
21505;SDS011;10914;48.886;9.394;2023-05-19T01:02:48;30.10;;;28.20;;
21505;SDS011;10914;48.886;9.394;2023-05-19T01:05:16;29.35;;;27.75;;
21505;SDS011;10914;48.886;9.394;2023-05-19T01:07:41;28.92;;;27.20;;
21505;SDS011;10914;48.886;9.394;2023-05-19T01:10:07;29.52;;;27.70;;
21505;SDS011;10914;48.886;9.394;2023-05-19T01:12:32;30.17;;;28.20;;
21505;SDS011;10914;48.886;9.394;2023-05-19T01:14:58;28.90;;;27.13;;
21505;SDS011;10914;48.886;9.394;2023-05-19T01:20:14;29.52;;;27.92;;
21505;SDS011;10914;48.886;9.394;2023-05-19T01:30:44;28.77;;;26.83;;
21505;SDS011;10914;48.886;9.394;2023-05-19T01:33:10;28.10;;;26.25;;
21505;SDS011;10914;48.886;9.394;2023-05-19T01:35:38;28.95;;;27.08;;
21505;SDS011;10914;48.886;9.394;2023-05-19T01:38:04;28.80;;;26.83;;
21505;SDS011;10914;48.886;9.394;2023-05-19T01:40:31;28.48;;;26.73;;
21505;SDS011;10914;48.886;9.394;2023-05-19T01:42:58;27.45;;;25.85;;
21505;SDS011;10914;48.886;9.394;2023-05-19T01:45:24;28.63;;;26.90;;
21505;SDS011;10914;48.886;9.394;2023-05-19T01:47:51;28.17;;;26.38;;
21505;SDS011;10914;48.886;9.394;2023-05-19T01:50:16;28.10;;;26.40;;
21505;SDS011;10914;48.886;9.394;2023-05-19T01:52:42;28.07;;;26.37;;
21505;SDS011;10914;48.886;9.394;2023-05-19T01:55:07;27.17;;;25.47;;
21505;SDS011;10914;48.886;9.394;2023-05-19T01:57:42;27.20;;;25.35;;
21505;SDS011;10914;48.886;9.394;2023-05-19T02:05:30;27.75;;;25.98;;
21505;SDS011;10914;48.886;9.394;2023-05-19T02:08:07;28.13;;;26.23;;
21505;SDS011;10914;48.886;9.394;2023-05-19T02:10:35;28.38;;;26.38;;
21505;SDS011;10914;48.886;9.394;2023-05-19T02:13:03;27.55;;;25.60;;
21505;SDS011;10914;48.886;9.394;2023-05-19T02:15:29;27.52;;;25.92;;
21505;SDS011;10914;48.886;9.394;2023-05-19T02:17:56;28.00;;;26.10;;
21505;SDS011;10914;48.886;9.394;2023-05-19T02:20:24;27.67;;;26.02;;
21505;SDS011;10914;48.886;9.394;2023-05-19T02:22:49;26.80;;;25.20;;
21505;SDS011;10914;48.886;9.394;2023-05-19T02:25:14;26.73;;;25.27;;
21505;SDS011;10914;48.886;9.394;2023-05-19T02:27:39;27.85;;;26.02;;
21505;SDS011;10914;48.886;9.394;2023-05-19T02:30:05;27.20;;;25.38;;
21505;SDS011;10914;48.886;9.394;2023-05-19T02:32:33;27.77;;;26.10;;
21505;SDS011;10914;48.886;9.394;2023-05-19T02:35:00;28.40;;;26.60;;
21505;SDS011;10914;48.886;9.394;2023-05-19T02:37:25;28.88;;;27.08;;
21505;SDS011;10914;48.886;9.394;2023-05-19T02:39:52;29.00;;;27.20;;
21505;SDS011;10914;48.886;9.394;2023-05-19T02:42:18;28.75;;;26.85;;
21505;SDS011;10914;48.886;9.394;2023-05-19T02:44:43;27.90;;;26.13;;
21505;SDS011;10914;48.886;9.394;2023-05-19T02:47:08;27.17;;;25.47;;
21505;SDS011;10914;48.886;9.394;2023-05-19T02:49:33;26.40;;;24.70;;
21505;SDS011;10914;48.886;9.394;2023-05-19T02:52:00;26.05;;;24.25;;
21505;SDS011;10914;48.886;9.394;2023-05-19T02:54:25;25.92;;;24.02;;
21505;SDS011;10914;48.886;9.394;2023-05-19T02:56:50;25.80;;;24.00;;
21505;SDS011;10914;48.886;9.394;2023-05-19T02:59:15;26.77;;;25.07;;
21505;SDS011;10914;48.886;9.394;2023-05-19T03:01:40;26.05;;;24.33;;
21505;SDS011;10914;48.886;9.394;2023-05-19T03:04:05;26.93;;;25.20;;
21505;SDS011;10914;48.886;9.394;2023-05-19T03:06:31;27.30;;;25.40;;
21505;SDS011;10914;48.886;9.394;2023-05-19T03:08:57;26.42;;;24.67;;
21505;SDS011;10914;48.886;9.394;2023-05-19T03:11:22;26.73;;;24.90;;
21505;SDS011;10914;48.886;9.394;2023-05-19T03:13:47;26.70;;;25.10;;
21505;SDS011;10914;48.886;9.394;2023-05-19T03:16:12;27.93;;;26.13;;
21505;SDS011;10914;48.886;9.394;2023-05-19T03:18:37;27.63;;;25.70;;
21505;SDS011;10914;48.886;9.394;2023-05-19T03:21:03;26.55;;;24.85;;
21505;SDS011;10914;48.886;9.394;2023-05-19T03:23:28;27.48;;;25.55;;
21505;SDS011;10914;48.886;9.394;2023-05-19T03:25:53;26.88;;;25.00;;
21505;SDS011;10914;48.886;9.394;2023-05-19T03:28:19;27.10;;;25.20;;
21505;SDS011;10914;48.886;9.394;2023-05-19T03:30:45;27.00;;;25.20;;
21505;SDS011;10914;48.886;9.394;2023-05-19T03:33:10;27.35;;;25.35;;
21505;SDS011;10914;48.886;9.394;2023-05-19T03:35:35;27.95;;;26.17;;
21505;SDS011;10914;48.886;9.394;2023-05-19T03:38:01;27.75;;;25.90;;
21505;SDS011;10914;48.886;9.394;2023-05-19T03:40:26;28.13;;;26.23;;
21505;SDS011;10914;48.886;9.394;2023-05-19T03:42:51;28.48;;;26.77;;
21505;SDS011;10914;48.886;9.394;2023-05-19T03:45:18;29.27;;;27.20;;
21505;SDS011;10914;48.886;9.394;2023-05-19T03:47:43;29.13;;;27.23;;
21505;SDS011;10914;48.886;9.394;2023-05-19T03:50:08;30.15;;;27.95;;
21505;SDS011;10914;48.886;9.394;2023-05-19T03:52:34;29.88;;;27.88;;
21505;SDS011;10914;48.886;9.394;2023-05-19T03:55:00;28.40;;;26.40;;
21505;SDS011;10914;48.886;9.394;2023-05-19T03:57:25;28.17;;;26.20;;
21505;SDS011;10914;48.886;9.394;2023-05-19T03:59:50;28.25;;;26.27;;
21505;SDS011;10914;48.886;9.394;2023-05-19T04:02:16;29.15;;;27.25;;
21505;SDS011;10914;48.886;9.394;2023-05-19T04:04:41;29.20;;;27.25;;
21505;SDS011;10914;48.886;9.394;2023-05-19T04:07:06;29.77;;;27.27;;
21505;SDS011;10914;48.886;9.394;2023-05-19T04:09:31;27.52;;;25.70;;
21505;SDS011;10914;48.886;9.394;2023-05-19T04:11:59;27.85;;;25.92;;
21505;SDS011;10914;48.886;9.394;2023-05-19T04:14:25;28.08;;;26.27;;
21505;SDS011;10914;48.886;9.394;2023-05-19T04:16:50;28.70;;;26.73;;
21505;SDS011;10914;48.886;9.394;2023-05-19T04:19:16;28.08;;;26.50;;
21505;SDS011;10914;48.886;9.394;2023-05-19T04:21:41;29.50;;;27.60;;
21505;SDS011;10914;48.886;9.394;2023-05-19T04:24:06;28.90;;;26.85;;
21505;SDS011;10914;48.886;9.394;2023-05-19T04:26:31;28.52;;;26.70;;
21505;SDS011;10914;48.886;9.394;2023-05-19T04:28:58;28.25;;;26.45;;
21505;SDS011;10914;48.886;9.394;2023-05-19T04:31:23;30.13;;;27.55;;
21505;SDS011;10914;48.886;9.394;2023-05-19T04:33:48;29.33;;;27.52;;
21505;SDS011;10914;48.886;9.394;2023-05-19T04:36:14;29.27;;;27.23;;
21505;SDS011;10914;48.886;9.394;2023-05-19T04:38:41;28.00;;;26.20;;
21505;SDS011;10914;48.886;9.394;2023-05-19T04:41:06;29.65;;;27.70;;
21505;SDS011;10914;48.886;9.394;2023-05-19T04:43:35;28.17;;;26.30;;
21505;SDS011;10914;48.886;9.394;2023-05-19T04:46:05;27.85;;;26.15;;
21505;SDS011;10914;48.886;9.394;2023-05-19T04:48:31;28.40;;;26.35;;
21505;SDS011;10914;48.886;9.394;2023-05-19T04:50:57;27.83;;;25.83;;
21505;SDS011;10914;48.886;9.394;2023-05-19T04:53:22;27.98;;;26.15;;
21505;SDS011;10914;48.886;9.394;2023-05-19T04:55:49;26.98;;;25.20;;
21505;SDS011;10914;48.886;9.394;2023-05-19T04:58:14;27.10;;;25.38;;
21505;SDS011;10914;48.886;9.394;2023-05-19T05:00:41;27.95;;;26.30;;
21505;SDS011;10914;48.886;9.394;2023-05-19T05:03:06;29.02;;;27.23;;
21505;SDS011;10914;48.886;9.394;2023-05-19T05:05:31;28.42;;;26.70;;
21505;SDS011;10914;48.886;9.394;2023-05-19T05:07:57;28.67;;;26.63;;
21505;SDS011;10914;48.886;9.394;2023-05-19T05:10:23;28.15;;;26.38;;
21505;SDS011;10914;48.886;9.394;2023-05-19T05:12:48;27.88;;;26.17;;
21505;SDS011;10914;48.886;9.394;2023-05-19T05:15:13;30.42;;;28.52;;
21505;SDS011;10914;48.886;9.394;2023-05-19T05:17:38;29.23;;;27.33;;
21505;SDS011;10914;48.886;9.394;2023-05-19T05:20:04;27.95;;;26.25;;
21505;SDS011;10914;48.886;9.394;2023-05-19T05:22:30;29.08;;;26.90;;
21505;SDS011;10914;48.886;9.394;2023-05-19T05:24:55;28.85;;;27.02;;
21505;SDS011;10914;48.886;9.394;2023-05-19T05:27:21;27.45;;;25.75;;
21505;SDS011;10914;48.886;9.394;2023-05-19T05:29:46;26.90;;;25.05;;
21505;SDS011;10914;48.886;9.394;2023-05-19T05:32:11;27.52;;;25.85;;
21505;SDS011;10914;48.886;9.394;2023-05-19T05:34:36;26.90;;;24.33;;
21505;SDS011;10914;48.886;9.394;2023-05-19T05:37:03;25.00;;;23.33;;
21505;SDS011;10914;48.886;9.394;2023-05-19T05:39:29;25.20;;;23.33;;
21505;SDS011;10914;48.886;9.394;2023-05-19T05:41:55;24.67;;;23.20;;
21505;SDS011;10914;48.886;9.394;2023-05-19T05:44:20;25.67;;;24.05;;
21505;SDS011;10914;48.886;9.394;2023-05-19T05:46:46;26.17;;;24.35;;
21505;SDS011;10914;48.886;9.394;2023-05-19T05:49:11;25.27;;;23.67;;
21505;SDS011;10914;48.886;9.394;2023-05-19T05:51:37;25.67;;;24.17;;
21505;SDS011;10914;48.886;9.394;2023-05-19T05:54:02;25.70;;;23.73;;
21505;SDS011;10914;48.886;9.394;2023-05-19T05:56:30;26.15;;;24.20;;
21505;SDS011;10914;48.886;9.394;2023-05-19T05:58:57;25.50;;;23.90;;
21505;SDS011;10914;48.886;9.394;2023-05-19T06:01:22;25.50;;;23.57;;
21505;SDS011;10914;48.886;9.394;2023-05-19T06:03:47;25.33;;;23.73;;
21505;SDS011;10914;48.886;9.394;2023-05-19T06:06:13;25.17;;;23.60;;
21505;SDS011;10914;48.886;9.394;2023-05-19T06:08:38;24.77;;;23.23;;
21505;SDS011;10914;48.886;9.394;2023-05-19T06:11:03;25.33;;;23.70;;
21505;SDS011;10914;48.886;9.394;2023-05-19T06:13:35;25.60;;;23.90;;
21505;SDS011;10914;48.886;9.394;2023-05-19T06:16:00;26.38;;;24.63;;
21505;SDS011;10914;48.886;9.394;2023-05-19T06:18:26;24.88;;;23.27;;
21505;SDS011;10914;48.886;9.394;2023-05-19T06:20:51;26.63;;;24.83;;
21505;SDS011;10914;48.886;9.394;2023-05-19T06:23:16;25.30;;;23.70;;
21505;SDS011;10914;48.886;9.394;2023-05-19T06:25:41;25.70;;;23.92;;
21505;SDS011;10914;48.886;9.394;2023-05-19T06:28:06;25.67;;;23.97;;
21505;SDS011;10914;48.886;9.394;2023-05-19T06:30:31;25.58;;;23.92;;
21505;SDS011;10914;48.886;9.394;2023-05-19T06:32:57;25.00;;;23.35;;
21505;SDS011;10914;48.886;9.394;2023-05-19T06:35:22;24.60;;;23.00;;
21505;SDS011;10914;48.886;9.394;2023-05-19T06:37:47;24.38;;;22.67;;
21505;SDS011;10914;48.886;9.394;2023-05-19T06:40:12;24.25;;;22.55;;
21505;SDS011;10914;48.886;9.394;2023-05-19T06:42:38;23.63;;;22.00;;
21505;SDS011;10914;48.886;9.394;2023-05-19T06:45:03;23.87;;;22.33;;
21505;SDS011;10914;48.886;9.394;2023-05-19T06:47:28;24.45;;;22.60;;
21505;SDS011;10914;48.886;9.394;2023-05-19T06:49:53;24.58;;;22.88;;
21505;SDS011;10914;48.886;9.394;2023-05-19T06:52:19;25.67;;;23.95;;
21505;SDS011;10914;48.886;9.394;2023-05-19T06:54:44;25.85;;;24.25;;
21505;SDS011;10914;48.886;9.394;2023-05-19T06:57:09;28.03;;;25.97;;
21505;SDS011;10914;48.886;9.394;2023-05-19T06:59:35;26.57;;;24.93;;
21505;SDS011;10914;48.886;9.394;2023-05-19T07:02:01;26.67;;;24.80;;
21505;SDS011;10914;48.886;9.394;2023-05-19T07:04:26;26.42;;;24.63;;
21505;SDS011;10914;48.886;9.394;2023-05-19T07:06:52;25.23;;;23.53;;
21505;SDS011;10914;48.886;9.394;2023-05-19T07:09:17;25.17;;;23.60;;
21505;SDS011;10914;48.886;9.394;2023-05-19T07:11:42;25.13;;;23.40;;
21505;SDS011;10914;48.886;9.394;2023-05-19T07:14:07;26.45;;;24.75;;
21505;SDS011;10914;48.886;9.394;2023-05-19T07:16:33;26.53;;;24.83;;
21505;SDS011;10914;48.886;9.394;2023-05-19T07:18:58;27.73;;;26.10;;
21505;SDS011;10914;48.886;9.394;2023-05-19T07:21:23;28.17;;;26.05;;
21505;SDS011;10914;48.886;9.394;2023-05-19T07:23:48;28.43;;;26.30;;
21505;SDS011;10914;48.886;9.394;2023-05-19T07:26:14;29.43;;;27.70;;
21505;SDS011;10914;48.886;9.394;2023-05-19T07:28:39;29.05;;;27.10;;
21505;SDS011;10914;48.886;9.394;2023-05-19T07:31:04;27.50;;;25.83;;
21505;SDS011;10914;48.886;9.394;2023-05-19T07:33:30;27.35;;;25.70;;
21505;SDS011;10914;48.886;9.394;2023-05-19T07:35:55;28.73;;;26.87;;
21505;SDS011;10914;48.886;9.394;2023-05-19T07:38:20;28.83;;;27.00;;
21505;SDS011;10914;48.886;9.394;2023-05-19T07:40:46;28.73;;;27.02;;
21505;SDS011;10914;48.886;9.394;2023-05-19T07:43:11;29.47;;;27.47;;
21505;SDS011;10914;48.886;9.394;2023-05-19T07:45:36;29.83;;;27.90;;
21505;SDS011;10914;48.886;9.394;2023-05-19T07:48:02;27.80;;;26.10;;
21505;SDS011;10914;48.886;9.394;2023-05-19T07:50:27;27.27;;;25.58;;
21505;SDS011;10914;48.886;9.394;2023-05-19T07:52:53;25.70;;;24.08;;
21505;SDS011;10914;48.886;9.394;2023-05-19T07:55:18;24.95;;;23.35;;
21505;SDS011;10914;48.886;9.394;2023-05-19T07:57:43;24.77;;;23.00;;
21505;SDS011;10914;48.886;9.394;2023-05-19T08:00:08;24.03;;;22.50;;
21505;SDS011;10914;48.886;9.394;2023-05-19T08:02:36;23.52;;;21.90;;
21505;SDS011;10914;48.886;9.394;2023-05-19T08:05:01;24.53;;;22.60;;
21505;SDS011;10914;48.886;9.394;2023-05-19T08:07:26;25.10;;;23.48;;
21505;SDS011;10914;48.886;9.394;2023-05-19T08:09:52;26.10;;;24.33;;
21505;SDS011;10914;48.886;9.394;2023-05-19T08:12:17;26.97;;;25.13;;
21505;SDS011;10914;48.886;9.394;2023-05-19T08:14:42;27.30;;;25.35;;
21505;SDS011;10914;48.886;9.394;2023-05-19T08:17:07;27.88;;;25.98;;
21505;SDS011;10914;48.886;9.394;2023-05-19T08:19:32;27.60;;;25.53;;
21505;SDS011;10914;48.886;9.394;2023-05-19T08:21:58;26.13;;;24.57;;
21505;SDS011;10914;48.886;9.394;2023-05-19T08:24:25;26.25;;;24.65;;
21505;SDS011;10914;48.886;9.394;2023-05-19T08:26:50;26.50;;;24.67;;
21505;SDS011;10914;48.886;9.394;2023-05-19T08:29:15;26.27;;;24.58;;
21505;SDS011;10914;48.886;9.394;2023-05-19T08:31:40;25.77;;;23.87;;
21505;SDS011;10914;48.886;9.394;2023-05-19T08:34:05;25.13;;;23.47;;
21505;SDS011;10914;48.886;9.394;2023-05-19T08:36:31;24.75;;;23.15;;
21505;SDS011;10914;48.886;9.394;2023-05-19T08:38:57;24.02;;;22.63;;
21505;SDS011;10914;48.886;9.394;2023-05-19T08:41:22;23.97;;;22.33;;
21505;SDS011;10914;48.886;9.394;2023-05-19T08:43:48;24.03;;;22.30;;
21505;SDS011;10914;48.886;9.394;2023-05-19T08:46:14;24.83;;;22.70;;
21505;SDS011;10914;48.886;9.394;2023-05-19T08:48:41;24.75;;;22.92;;
21505;SDS011;10914;48.886;9.394;2023-05-19T08:53:50;25.88;;;24.08;;
21505;SDS011;10914;48.886;9.394;2023-05-19T08:56:21;24.90;;;23.27;;
21505;SDS011;10914;48.886;9.394;2023-05-19T08:58:47;26.08;;;24.27;;
21505;SDS011;10914;48.886;9.394;2023-05-19T09:01:13;25.80;;;24.00;;
21505;SDS011;10914;48.886;9.394;2023-05-19T09:03:42;24.42;;;22.83;;
21505;SDS011;10914;48.886;9.394;2023-05-19T09:06:07;24.30;;;22.42;;
21505;SDS011;10914;48.886;9.394;2023-05-19T09:08:33;23.33;;;21.77;;
21505;SDS011;10914;48.886;9.394;2023-05-19T09:10:58;23.20;;;21.73;;
21505;SDS011;10914;48.886;9.394;2023-05-19T09:13:24;23.80;;;22.27;;
21505;SDS011;10914;48.886;9.394;2023-05-19T09:15:50;23.63;;;21.85;;
21505;SDS011;10914;48.886;9.394;2023-05-19T09:18:16;24.73;;;22.98;;
21505;SDS011;10914;48.886;9.394;2023-05-19T09:20:43;23.52;;;21.67;;
21505;SDS011;10914;48.886;9.394;2023-05-19T09:23:15;22.38;;;20.98;;
21505;SDS011;10914;48.886;9.394;2023-05-19T09:26:01;23.45;;;21.80;;
21505;SDS011;10914;48.886;9.394;2023-05-19T09:28:26;23.25;;;21.67;;
21505;SDS011;10914;48.886;9.394;2023-05-19T09:31:08;22.08;;;20.77;;
21505;SDS011;10914;48.886;9.394;2023-05-19T09:33:35;23.52;;;21.90;;
21505;SDS011;10914;48.886;9.394;2023-05-19T09:36:01;23.17;;;21.48;;
21505;SDS011;10914;48.886;9.394;2023-05-19T09:38:29;23.02;;;21.50;;
21505;SDS011;10914;48.886;9.394;2023-05-19T09:40:55;23.05;;;21.35;;
21505;SDS011;10914;48.886;9.394;2023-05-19T09:43:21;23.17;;;21.63;;
21505;SDS011;10914;48.886;9.394;2023-05-19T09:45:46;23.10;;;21.55;;
21505;SDS011;10914;48.886;9.394;2023-05-19T09:48:13;23.00;;;21.40;;
21505;SDS011;10914;48.886;9.394;2023-05-19T09:50:38;23.02;;;21.42;;
21505;SDS011;10914;48.886;9.394;2023-05-19T09:53:03;22.88;;;21.27;;
21505;SDS011;10914;48.886;9.394;2023-05-19T09:55:28;23.65;;;22.05;;
21505;SDS011;10914;48.886;9.394;2023-05-19T09:57:54;23.33;;;21.77;;
21505;SDS011;10914;48.886;9.394;2023-05-19T10:00:20;22.60;;;21.00;;
21505;SDS011;10914;48.886;9.394;2023-05-19T10:02:46;23.33;;;21.83;;
21505;SDS011;10914;48.886;9.394;2023-05-19T10:05:13;23.40;;;21.70;;
21505;SDS011;10914;48.886;9.394;2023-05-19T10:07:41;24.27;;;22.38;;
21505;SDS011;10914;48.886;9.394;2023-05-19T10:10:09;23.13;;;21.73;;
21505;SDS011;10914;48.886;9.394;2023-05-19T10:12:35;23.25;;;21.75;;
21505;SDS011;10914;48.886;9.394;2023-05-19T10:15:01;23.25;;;21.60;;
21505;SDS011;10914;48.886;9.394;2023-05-19T10:17:27;22.80;;;21.38;;
21505;SDS011;10914;48.886;9.394;2023-05-19T10:19:52;23.27;;;21.75;;
21505;SDS011;10914;48.886;9.394;2023-05-19T10:22:19;23.50;;;21.98;;
21505;SDS011;10914;48.886;9.394;2023-05-19T10:24:44;22.80;;;21.40;;
21505;SDS011;10914;48.886;9.394;2023-05-19T10:27:10;23.15;;;21.65;;
21505;SDS011;10914;48.886;9.394;2023-05-19T10:29:39;23.15;;;21.58;;
21505;SDS011;10914;48.886;9.394;2023-05-19T10:32:10;24.27;;;22.60;;
21505;SDS011;10914;48.886;9.394;2023-05-19T10:39:52;22.88;;;21.38;;
21505;SDS011;10914;48.886;9.394;2023-05-19T10:42:32;24.10;;;22.45;;
21505;SDS011;10914;48.886;9.394;2023-05-19T10:47:28;23.83;;;22.33;;
21505;SDS011;10914;48.886;9.394;2023-05-19T10:49:54;23.55;;;22.05;;
21505;SDS011;10914;48.886;9.394;2023-05-19T10:52:20;24.30;;;22.58;;
21505;SDS011;10914;48.886;9.394;2023-05-19T10:54:46;23.33;;;21.80;;
21505;SDS011;10914;48.886;9.394;2023-05-19T10:57:14;25.13;;;23.42;;
21505;SDS011;10914;48.886;9.394;2023-05-19T10:59:40;32.90;;;29.70;;
21505;SDS011;10914;48.886;9.394;2023-05-19T11:02:06;29.45;;;27.58;;
21505;SDS011;10914;48.886;9.394;2023-05-19T11:04:38;24.70;;;22.92;;
21505;SDS011;10914;48.886;9.394;2023-05-19T11:07:04;24.45;;;22.55;;
21505;SDS011;10914;48.886;9.394;2023-05-19T11:09:30;24.15;;;22.35;;
21505;SDS011;10914;48.886;9.394;2023-05-19T11:12:00;24.58;;;22.85;;
21505;SDS011;10914;48.886;9.394;2023-05-19T11:14:27;24.13;;;22.50;;
21505;SDS011;10914;48.886;9.394;2023-05-19T11:16:55;24.73;;;22.85;;
21505;SDS011;10914;48.886;9.394;2023-05-19T11:21:52;23.63;;;21.73;;
21505;SDS011;10914;48.886;9.394;2023-05-19T11:24:32;23.95;;;22.25;;
21505;SDS011;10914;48.886;9.394;2023-05-19T11:26:57;24.00;;;22.40;;
21505;SDS011;10914;48.886;9.394;2023-05-19T11:29:22;24.13;;;22.25;;
21505;SDS011;10914;48.886;9.394;2023-05-19T11:31:48;23.55;;;21.95;;
21505;SDS011;10914;48.886;9.394;2023-05-19T11:34:13;24.13;;;22.33;;
21505;SDS011;10914;48.886;9.394;2023-05-19T11:36:39;23.90;;;22.20;;
21505;SDS011;10914;48.886;9.394;2023-05-19T11:39:05;22.40;;;21.10;;
21505;SDS011;10914;48.886;9.394;2023-05-19T11:41:30;23.80;;;21.88;;
21505;SDS011;10914;48.886;9.394;2023-05-19T11:43:56;23.33;;;21.58;;
21505;SDS011;10914;48.886;9.394;2023-05-19T11:46:21;23.05;;;21.30;;
21505;SDS011;10914;48.886;9.394;2023-05-19T11:48:46;22.73;;;21.23;;
21505;SDS011;10914;48.886;9.394;2023-05-19T11:51:12;22.67;;;21.10;;
21505;SDS011;10914;48.886;9.394;2023-05-19T11:53:37;22.58;;;20.95;;
21505;SDS011;10914;48.886;9.394;2023-05-19T11:56:04;22.52;;;20.75;;
21505;SDS011;10914;48.886;9.394;2023-05-19T11:58:29;22.13;;;20.73;;
21505;SDS011;10914;48.886;9.394;2023-05-19T12:00:55;23.27;;;21.57;;
21505;SDS011;10914;48.886;9.394;2023-05-19T12:03:20;22.48;;;20.90;;
21505;SDS011;10914;48.886;9.394;2023-05-19T12:05:47;22.90;;;21.30;;
21505;SDS011;10914;48.886;9.394;2023-05-19T12:08:12;22.92;;;21.45;;
21505;SDS011;10914;48.886;9.394;2023-05-19T12:10:38;22.90;;;21.30;;
21505;SDS011;10914;48.886;9.394;2023-05-19T12:13:04;22.67;;;21.17;;
21505;SDS011;10914;48.886;9.394;2023-05-19T12:15:30;22.95;;;21.45;;
21505;SDS011;10914;48.886;9.394;2023-05-19T12:17:56;22.83;;;21.30;;
21505;SDS011;10914;48.886;9.394;2023-05-19T12:20:22;23.27;;;21.50;;
21505;SDS011;10914;48.886;9.394;2023-05-19T12:22:48;23.40;;;21.75;;
21505;SDS011;10914;48.886;9.394;2023-05-19T12:25:16;24.63;;;22.77;;
21505;SDS011;10914;48.886;9.394;2023-05-19T12:27:42;24.60;;;22.95;;
21505;SDS011;10914;48.886;9.394;2023-05-19T12:30:08;25.40;;;23.60;;
21505;SDS011;10914;48.886;9.394;2023-05-19T12:32:33;24.30;;;22.70;;
21505;SDS011;10914;48.886;9.394;2023-05-19T12:35:01;23.67;;;22.08;;
21505;SDS011;10914;48.886;9.394;2023-05-19T12:37:26;25.27;;;22.88;;
21505;SDS011;10914;48.886;9.394;2023-05-19T12:39:54;24.70;;;22.60;;
21505;SDS011;10914;48.886;9.394;2023-05-19T12:42:19;25.10;;;23.17;;
21505;SDS011;10914;48.886;9.394;2023-05-19T12:44:48;24.55;;;22.70;;
21505;SDS011;10914;48.886;9.394;2023-05-19T12:47:17;24.75;;;22.85;;
21505;SDS011;10914;48.886;9.394;2023-05-19T12:52:24;23.25;;;21.75;;
21505;SDS011;10914;48.886;9.394;2023-05-19T12:54:56;23.67;;;22.02;;
21505;SDS011;10914;48.886;9.394;2023-05-19T12:57:22;24.48;;;22.58;;
21505;SDS011;10914;48.886;9.394;2023-05-19T12:59:47;23.45;;;21.92;;
21505;SDS011;10914;48.886;9.394;2023-05-19T13:02:13;23.20;;;21.50;;
21505;SDS011;10914;48.886;9.394;2023-05-19T13:04:38;25.85;;;23.85;;
21505;SDS011;10914;48.886;9.394;2023-05-19T13:07:04;24.70;;;23.07;;
21505;SDS011;10914;48.886;9.394;2023-05-19T13:09:29;25.30;;;23.40;;
21505;SDS011;10914;48.886;9.394;2023-05-19T13:11:59;24.23;;;22.73;;
21505;SDS011;10914;48.886;9.394;2023-05-19T13:14:24;25.02;;;23.00;;
21505;SDS011;10914;48.886;9.394;2023-05-19T13:16:49;28.00;;;25.42;;
21505;SDS011;10914;48.886;9.394;2023-05-19T13:19:18;23.67;;;22.10;;
21505;SDS011;10914;48.886;9.394;2023-05-19T13:21:43;24.48;;;22.52;;
21505;SDS011;10914;48.886;9.394;2023-05-19T13:24:11;23.85;;;22.15;;
21505;SDS011;10914;48.886;9.394;2023-05-19T13:26:36;23.92;;;22.25;;
21505;SDS011;10914;48.886;9.394;2023-05-19T13:29:01;24.40;;;22.87;;
21505;SDS011;10914;48.886;9.394;2023-05-19T13:31:27;23.52;;;21.98;;
21505;SDS011;10914;48.886;9.394;2023-05-19T13:33:52;23.83;;;22.10;;
21505;SDS011;10914;48.886;9.394;2023-05-19T13:36:17;24.30;;;22.53;;
21505;SDS011;10914;48.886;9.394;2023-05-19T13:38:42;24.05;;;22.45;;
21505;SDS011;10914;48.886;9.394;2023-05-19T13:41:07;23.88;;;22.02;;
21505;SDS011;10914;48.886;9.394;2023-05-19T13:43:33;24.17;;;22.58;;
21505;SDS011;10914;48.886;9.394;2023-05-19T13:45:58;23.67;;;22.17;;
21505;SDS011;10914;48.886;9.394;2023-05-19T13:48:24;22.75;;;21.27;;
21505;SDS011;10914;48.886;9.394;2023-05-19T13:50:49;23.13;;;21.63;;
21505;SDS011;10914;48.886;9.394;2023-05-19T13:53:16;22.67;;;21.20;;
21505;SDS011;10914;48.886;9.394;2023-05-19T13:55:41;22.23;;;20.90;;
21505;SDS011;10914;48.886;9.394;2023-05-19T13:58:06;23.17;;;21.57;;
21505;SDS011;10914;48.886;9.394;2023-05-19T14:00:34;23.00;;;21.40;;
21505;SDS011;10914;48.886;9.394;2023-05-19T14:03:00;23.67;;;22.08;;
21505;SDS011;10914;48.886;9.394;2023-05-19T14:05:26;22.30;;;20.85;;
21505;SDS011;10914;48.886;9.394;2023-05-19T14:07:52;24.00;;;21.90;;
21505;SDS011;10914;48.886;9.394;2023-05-19T14:10:18;22.80;;;21.30;;
21505;SDS011;10914;48.886;9.394;2023-05-19T14:12:43;23.50;;;21.75;;
21505;SDS011;10914;48.886;9.394;2023-05-19T14:15:08;23.55;;;21.83;;
21505;SDS011;10914;48.886;9.394;2023-05-19T14:17:34;22.65;;;21.25;;
21505;SDS011;10914;48.886;9.394;2023-05-19T14:19:59;23.20;;;21.60;;
21505;SDS011;10914;48.886;9.394;2023-05-19T14:22:24;22.60;;;21.10;;
21505;SDS011;10914;48.886;9.394;2023-05-19T14:24:49;22.50;;;21.07;;
21505;SDS011;10914;48.886;9.394;2023-05-19T14:27:15;23.17;;;21.63;;
21505;SDS011;10914;48.886;9.394;2023-05-19T14:29:40;23.13;;;21.45;;
21505;SDS011;10914;48.886;9.394;2023-05-19T14:32:06;23.00;;;21.40;;
21505;SDS011;10914;48.886;9.394;2023-05-19T14:34:31;22.33;;;20.92;;
21505;SDS011;10914;48.886;9.394;2023-05-19T14:36:56;22.13;;;20.73;;
21505;SDS011;10914;48.886;9.394;2023-05-19T14:39:21;21.92;;;20.63;;
21505;SDS011;10914;48.886;9.394;2023-05-19T14:41:47;22.77;;;21.20;;
21505;SDS011;10914;48.886;9.394;2023-05-19T14:44:14;23.00;;;21.60;;
21505;SDS011;10914;48.886;9.394;2023-05-19T14:46:40;23.20;;;21.70;;